الصفحة الرئيسية
METAR-TAF:

METAR-TAF

مطار :

Munda, New Georgia, جزر سولومون

دائرة عرض: 8-19-41S, خط طول: 157-15-47E, ارتفاع: 3 متر

مراقبة الطقس الحالي

تاريخ ووقت الإصدار 9ساعات و 33 دقيقة قبل الساعة 06:00UTC
ريح 8 عقدة من الغرب
درجة الحرارة 30°درجة مئوية
الرطوبة 62%
ضغط
الرؤية: 1007 متر
غيوم قليلة على ارتفاع 2000 قدم
غيوم مفككة على ارتفاع 32000 قدم

METAR: AGGM 060600Z 27008KT 9999 FEW020 BKN320 30/22 1007

زمن: 02:33 (15:33 UTC)

توقعات

تاريخ ووقت الإصدار 16ساعات و 20 دقيقة قبل الساعة 23:13UTC
التوقعات صالحة من06 الساعة 00 UTC إلى 06 الساعة 24 UTC
ريح 10 عقدة من الجنوب الغربي
الرؤية 10 كم أو أكثر
غيوم متفرقة على ارتفاع 1900 قدم
نظرية الاحتمالات 40%
بين IN و TE UTC
الرؤية: 1008 متر
غيوم متفرقة على ارتفاع 1600 قدم
غيوم مفككة على ارتفاع 2500 قدم
زخات من المطر

TAF: AGGM 052313Z 0600/0624 23010KT 9999 SCT019 PROB40 INTER 0602/0610 5000 SHRA SCT016 BKN025 Q 1009 1007 1006 1008

أرصاد الطقس والتوقعات من أكثر من 4000 مطار (تقارير الطقس للمطار METAR والتنبؤ بالطقس بالمطارTAF).

المحطات المتاحة هي النقط الصفراء والحمراء على الخريطة.

حرك المؤشر فوق النقطة لمعرفة اسم المحطة.

ثم انقر لمعرفة أرصاد وتوقعات الطقس.

لتغيير الخارطة: اضغط على الأزرار الخضراء مع رمز الصليب الأسود للتكبير. على الزر الأخضر مع شرطة للتصغير، أو على الأسهم الخضراء للخرائط المجاورة.


METAR-TAF: